createdAt,value
2019-03-31T00:02:16.683Z,33.20
2019-03-31T00:04:45.253Z,33.48
2019-03-31T00:07:13.836Z,33.33
2019-03-31T00:09:42.500Z,34.83
2019-03-31T00:12:11.108Z,34.15
2019-03-31T00:14:41.685Z,36.13
2019-03-31T00:17:11.237Z,35.28
2019-03-31T00:19:42.483Z,35.33
2019-03-31T00:22:11.077Z,36.93
2019-03-31T00:24:39.737Z,37.80
2019-03-31T00:27:08.358Z,37.20
2019-03-31T00:29:36.996Z,37.67
2019-03-31T00:32:05.645Z,40.00
2019-03-31T00:34:34.380Z,39.50
2019-03-31T00:37:03.056Z,40.45
2019-03-31T00:39:31.656Z,40.73
2019-03-31T00:42:00.238Z,41.33
2019-03-31T00:44:28.731Z,44.00
2019-03-31T00:46:57.384Z,43.75
2019-03-31T00:49:25.991Z,42.85
2019-03-31T00:51:54.575Z,45.75
2019-03-31T00:54:27.563Z,44.27
2019-03-31T00:56:53.780Z,46.83
2019-03-31T00:59:22.472Z,47.08
2019-03-31T01:01:56.695Z,46.95
2019-03-31T01:04:27.947Z,47.83
2019-03-31T01:06:56.723Z,48.95
2019-03-31T01:09:27.882Z,50.80
2019-03-31T01:11:59.775Z,48.70
2019-03-31T01:14:29.137Z,54.15
2019-03-31T01:16:58.419Z,52.30
2019-03-31T01:19:27.129Z,52.08
2019-03-31T01:21:56.079Z,54.40
2019-03-31T01:24:27.885Z,52.60
2019-03-31T01:26:57.485Z,55.48
2019-03-31T01:29:26.151Z,53.15
2019-03-31T01:31:55.898Z,54.80
2019-03-31T01:34:26.487Z,56.15
2019-03-31T01:36:57.405Z,54.88
2019-03-31T01:39:35.175Z,54.38
2019-03-31T01:42:06.538Z,57.73
2019-03-31T01:44:35.341Z,57.95
2019-03-31T01:47:04.334Z,59.65
2019-03-31T01:49:33.120Z,59.25
2019-03-31T01:52:01.933Z,57.30
2019-03-31T01:54:30.696Z,58.98
2019-03-31T01:56:59.750Z,59.50
2019-03-31T01:59:29.806Z,58.73
2019-03-31T02:02:04.556Z,58.85
2019-03-31T02:04:28.855Z,60.35
2019-03-31T02:06:57.531Z,58.58
2019-03-31T02:09:26.289Z,57.48
2019-03-31T02:11:55.078Z,58.30
2019-03-31T02:14:23.889Z,55.80
2019-03-31T02:16:52.574Z,56.08
2019-03-31T02:19:21.286Z,56.23
2019-03-31T02:21:52.608Z,56.98
2019-03-31T02:24:25.161Z,55.15
2019-03-31T02:26:53.947Z,55.52
2019-03-31T02:29:22.671Z,52.62
2019-03-31T02:31:51.351Z,51.65
2019-03-31T02:34:20.110Z,52.65
2019-03-31T02:36:48.921Z,52.90
2019-03-31T02:39:17.616Z,52.65
2019-03-31T02:41:46.367Z,50.28
2019-03-31T02:44:15.085Z,49.03
2019-03-31T02:46:43.841Z,49.33
2019-03-31T02:49:12.551Z,48.87
2019-03-31T02:51:41.316Z,49.63
2019-03-31T02:54:13.899Z,46.58
2019-03-31T02:56:45.141Z,47.43
2019-03-31T02:59:14.148Z,47.10
2019-03-31T03:01:43.431Z,49.48
2019-03-31T03:04:13.646Z,49.73
2019-03-31T03:06:42.947Z,47.90
2019-03-31T03:09:11.658Z,48.23
2019-03-31T03:11:41.780Z,49.90
2019-03-31T03:14:11.260Z,53.17
2019-03-31T03:16:40.247Z,51.85
2019-03-31T03:19:09.040Z,58.02
2019-03-31T03:21:38.863Z,51.58
2019-03-31T03:24:07.566Z,47.60
2019-03-31T03:26:36.321Z,48.87
2019-03-31T03:29:05.122Z,47.27
2019-03-31T03:31:37.909Z,47.30
2019-03-31T03:34:06.628Z,49.03
2019-03-31T03:36:35.383Z,52.98
2019-03-31T03:39:05.986Z,49.58
2019-03-31T03:41:38.116Z,50.08
2019-03-31T03:44:07.288Z,50.43
2019-03-31T03:46:36.477Z,52.23
2019-03-31T03:49:05.337Z,56.35
2019-03-31T03:51:34.055Z,52.58
2019-03-31T03:54:02.905Z,53.45
2019-03-31T03:56:35.316Z,52.78
2019-03-31T03:59:04.110Z,52.03
2019-03-31T04:01:36.738Z,52.60
2019-03-31T04:04:05.542Z,51.57
2019-03-31T04:06:34.258Z,50.45
2019-03-31T04:09:05.062Z,49.77
2019-03-31T04:11:33.850Z,50.35
2019-03-31T04:14:04.327Z,50.10
2019-03-31T04:16:33.179Z,49.75
2019-03-31T04:19:02.865Z,49.30
2019-03-31T04:21:32.814Z,50.15
2019-03-31T04:24:01.589Z,48.38
2019-03-31T04:26:30.470Z,47.88
2019-03-31T04:28:59.176Z,49.23
2019-03-31T04:31:27.950Z,48.78
2019-03-31T04:33:56.653Z,48.83
2019-03-31T04:36:25.470Z,49.88
2019-03-31T04:38:54.120Z,47.80
2019-03-31T04:41:22.899Z,49.03
2019-03-31T04:43:51.783Z,46.73
2019-03-31T04:46:20.503Z,47.75
2019-03-31T04:48:50.174Z,47.67
2019-03-31T04:51:18.880Z,48.17
2019-03-31T04:53:47.570Z,49.15
2019-03-31T04:56:16.200Z,50.25
2019-03-31T04:58:45.036Z,49.08
2019-03-31T05:01:14.110Z,48.30
2019-03-31T05:03:42.899Z,50.28
2019-03-31T05:06:11.697Z,47.83
2019-03-31T05:08:40.391Z,48.85
2019-03-31T05:11:09.158Z,46.37
2019-03-31T05:13:40.429Z,48.75
2019-03-31T05:16:09.111Z,47.45
2019-03-31T05:18:40.360Z,48.00
2019-03-31T05:21:09.049Z,48.05
2019-03-31T05:23:39.657Z,47.25
2019-03-31T05:26:08.436Z,46.40
2019-03-31T05:28:37.222Z,45.08
2019-03-31T05:31:06.016Z,46.37
2019-03-31T05:33:34.727Z,46.85
2019-03-31T05:36:03.402Z,45.90
2019-03-31T05:38:32.173Z,45.00
2019-03-31T05:41:00.878Z,45.78
2019-03-31T05:43:29.577Z,45.67
2019-03-31T05:45:58.251Z,44.10
2019-03-31T05:48:27.115Z,42.83
2019-03-31T05:50:56.878Z,44.95
2019-03-31T05:53:25.611Z,45.30
2019-03-31T05:55:54.400Z,44.93
2019-03-31T05:58:23.109Z,45.43
2019-03-31T06:00:52.108Z,43.68
2019-03-31T06:03:20.864Z,44.20
2019-03-31T06:05:50.674Z,44.93
2019-03-31T06:08:19.914Z,42.33
2019-03-31T06:10:53.385Z,43.15
2019-03-31T06:13:24.727Z,43.52
2019-03-31T06:15:54.034Z,46.08
2019-03-31T06:18:23.513Z,45.67
2019-03-31T06:20:55.377Z,49.50
2019-03-31T06:23:24.728Z,59.58
2019-03-31T06:25:53.533Z,46.45
2019-03-31T06:28:22.468Z,44.83
2019-03-31T06:30:55.093Z,43.42
2019-03-31T06:33:23.992Z,47.23
2019-03-31T06:35:52.999Z,45.85
2019-03-31T06:38:21.727Z,42.83
2019-03-31T06:40:54.896Z,42.30
2019-03-31T06:43:23.482Z,40.85
2019-03-31T06:45:54.659Z,40.67
2019-03-31T06:48:23.291Z,40.05
2019-03-31T06:50:56.725Z,38.58
2019-03-31T06:53:24.780Z,36.90
2019-03-31T06:55:54.590Z,38.15
2019-03-31T06:58:23.188Z,36.48
2019-03-31T07:01:03.405Z,35.98
2019-03-31T07:03:32.137Z,34.27
2019-03-31T07:06:00.901Z,34.35
2019-03-31T07:08:30.713Z,33.88
2019-03-31T07:10:59.709Z,35.92
2019-03-31T07:13:29.519Z,35.50
2019-03-31T07:15:58.316Z,32.35
2019-03-31T07:18:27.006Z,31.57
2019-03-31T07:20:57.714Z,34.43
2019-03-31T07:23:26.441Z,30.55
2019-03-31T07:25:56.978Z,31.23
2019-03-31T07:28:25.647Z,26.17
2019-03-31T07:30:55.364Z,25.48
2019-03-31T07:33:29.412Z,24.80
2019-03-31T07:36:00.982Z,23.60
2019-03-31T07:38:38.358Z,22.65
2019-03-31T07:41:12.080Z,22.15
2019-03-31T07:43:28.762Z,21.57
2019-03-31T07:45:57.448Z,17.77
2019-03-31T07:48:26.033Z,16.00
2019-03-31T07:50:55.122Z,14.87
2019-03-31T07:53:23.755Z,12.58
2019-03-31T07:55:52.338Z,13.08
2019-03-31T07:58:22.042Z,11.68
2019-03-31T08:00:55.673Z,25.50
2019-03-31T08:03:24.280Z,31.97
2019-03-31T08:05:52.871Z,30.15
2019-03-31T08:08:21.478Z,25.60
2019-03-31T08:10:50.049Z,63.25
2019-03-31T08:13:18.685Z,101.40
2019-03-31T08:15:47.269Z,44.08
2019-03-31T08:18:22.559Z,16.75
2019-03-31T08:20:49.959Z,14.50
2019-03-31T08:23:18.564Z,22.27
2019-03-31T08:25:47.165Z,18.98
2019-03-31T08:28:15.746Z,18.25
2019-03-31T08:30:44.366Z,11.68
2019-03-31T08:33:12.942Z,10.72
2019-03-31T08:35:47.561Z,18.62
2019-03-31T08:38:11.797Z,11.22
2019-03-31T08:40:40.388Z,12.35
2019-03-31T08:43:08.989Z,8.30
2019-03-31T08:45:38.646Z,8.43
2019-03-31T08:48:07.328Z,7.95
2019-03-31T08:50:36.019Z,6.47
2019-03-31T08:53:04.780Z,6.92
2019-03-31T08:55:33.427Z,5.83
2019-03-31T08:58:02.049Z,5.70
2019-03-31T09:00:50.890Z,5.87
2019-03-31T09:03:19.592Z,4.92
2019-03-31T09:06:01.121Z,5.95
2019-03-31T09:08:18.617Z,4.87
2019-03-31T09:10:47.388Z,4.30
2019-03-31T09:13:16.176Z,4.47
2019-03-31T09:15:44.972Z,4.83
2019-03-31T09:18:13.665Z,3.47
2019-03-31T09:20:42.446Z,3.20
2019-03-31T09:23:11.141Z,4.10
2019-03-31T09:25:40.119Z,4.08
2019-03-31T09:28:08.902Z,3.25
2019-03-31T09:30:41.609Z,3.45
2019-03-31T09:33:13.813Z,5.03
2019-03-31T09:35:43.488Z,6.40
2019-03-31T09:38:12.159Z,6.47
2019-03-31T09:40:41.034Z,4.40
2019-03-31T09:43:14.714Z,2.95
2019-03-31T09:45:43.424Z,3.27
2019-03-31T09:48:18.683Z,2.40
2019-03-31T09:50:52.259Z,2.47
2019-03-31T09:53:21.071Z,2.25
2019-03-31T09:55:49.839Z,3.02
2019-03-31T09:58:18.541Z,4.25
2019-03-31T10:00:50.918Z,3.85
2019-03-31T10:03:20.912Z,3.00
2019-03-31T10:05:49.692Z,2.85
2019-03-31T10:08:21.738Z,6.12
2019-03-31T10:10:56.633Z,2.70
2019-03-31T10:13:26.399Z,2.70
2019-03-31T10:15:55.208Z,1.90
2019-03-31T10:18:28.386Z,2.00
2019-03-31T10:20:57.091Z,2.77
2019-03-31T10:23:31.995Z,1.87
2019-03-31T10:26:08.448Z,1.65
2019-03-31T10:28:43.455Z,2.15
2019-03-31T10:31:12.181Z,1.67
2019-03-31T10:33:44.349Z,1.50
2019-03-31T10:36:18.341Z,2.25
2019-03-31T10:38:47.075Z,1.85
2019-03-31T10:41:15.763Z,2.08
2019-03-31T10:43:45.993Z,1.80
2019-03-31T10:46:17.608Z,2.10
2019-03-31T10:48:46.414Z,2.17
2019-03-31T10:51:15.006Z,1.65
2019-03-31T10:53:48.723Z,2.02
2019-03-31T10:58:45.254Z,5.53
2019-03-31T11:01:14.119Z,14.35
2019-03-31T11:03:42.811Z,11.22
2019-03-31T11:06:11.694Z,14.53
2019-03-31T11:08:40.484Z,10.98
2019-03-31T11:11:09.679Z,8.08
2019-03-31T11:13:38.403Z,13.10
2019-03-31T11:16:07.155Z,8.85
2019-03-31T11:18:36.909Z,6.17
2019-03-31T11:21:07.995Z,7.95
2019-03-31T11:23:36.699Z,8.53
2019-03-31T11:26:05.307Z,4.62
2019-03-31T11:28:34.058Z,9.73
2019-03-31T11:31:03.872Z,4.17
2019-03-31T11:33:35.165Z,3.58
2019-03-31T11:36:03.834Z,2.40
2019-03-31T11:38:32.504Z,2.20
2019-03-31T11:41:01.087Z,2.60
2019-03-31T11:43:29.702Z,2.65
2019-03-31T11:45:58.346Z,2.42
2019-03-31T11:48:29.901Z,2.58
2019-03-31T11:51:00.426Z,1.98
2019-03-31T11:53:28.898Z,1.30
2019-03-31T11:55:57.496Z,1.87
2019-03-31T11:58:27.108Z,1.60
2019-03-31T12:00:56.403Z,1.02
2019-03-31T12:03:25.091Z,1.65
2019-03-31T12:05:57.410Z,3.35
2019-03-31T12:08:26.070Z,2.10
2019-03-31T12:10:54.729Z,1.92
2019-03-31T12:13:23.500Z,8.08
2019-03-31T12:15:52.287Z,3.40
2019-03-31T12:18:20.995Z,2.40
2019-03-31T12:20:49.671Z,2.02
2019-03-31T12:23:18.264Z,2.75
2019-03-31T12:25:46.844Z,2.27
2019-03-31T12:28:18.092Z,1.75
2019-03-31T12:30:46.860Z,1.32
2019-03-31T12:33:15.462Z,1.82
2019-03-31T12:35:49.458Z,1.62
2019-03-31T12:38:18.347Z,1.47
2019-03-31T12:40:46.934Z,1.98
2019-03-31T12:43:15.550Z,1.87
2019-03-31T12:45:44.292Z,1.80
2019-03-31T12:48:15.464Z,1.87
2019-03-31T12:50:45.248Z,2.22
2019-03-31T12:53:14.925Z,5.10
2019-03-31T12:55:43.660Z,16.42
2019-03-31T12:58:14.782Z,20.35
2019-03-31T13:00:43.490Z,11.57
2019-03-31T13:03:16.682Z,11.22
2019-03-31T13:05:45.448Z,4.05
2019-03-31T13:08:14.152Z,3.15
2019-03-31T13:10:43.713Z,2.92
2019-03-31T13:13:12.940Z,1.95
2019-03-31T13:15:42.660Z,2.15
2019-03-31T13:18:11.430Z,2.20
2019-03-31T13:20:42.489Z,1.67
2019-03-31T13:23:11.101Z,1.72
2019-03-31T13:25:39.740Z,2.17
2019-03-31T13:28:08.651Z,2.22
2019-03-31T13:30:37.308Z,2.40
2019-03-31T13:33:05.964Z,2.05
2019-03-31T13:35:34.693Z,1.60
2019-03-31T13:38:10.879Z,1.82
2019-03-31T13:40:33.807Z,2.12
2019-03-31T13:43:02.518Z,1.90
2019-03-31T13:45:31.271Z,14.73
2019-03-31T13:47:59.985Z,8.63
2019-03-31T13:50:28.743Z,5.03
2019-03-31T13:52:57.445Z,3.25
2019-03-31T13:55:26.217Z,10.00
2019-03-31T13:57:57.558Z,6.58
2019-03-31T14:00:26.813Z,13.43
2019-03-31T14:02:55.562Z,5.78
2019-03-31T14:05:26.714Z,2.90
2019-03-31T14:07:58.728Z,1.52
2019-03-31T14:10:28.800Z,2.12
2019-03-31T14:13:01.662Z,1.55
2019-03-31T14:15:30.485Z,2.17
2019-03-31T14:17:59.066Z,1.80
2019-03-31T14:20:27.919Z,1.92
2019-03-31T14:22:56.643Z,1.70
2019-03-31T14:25:27.877Z,1.70
2019-03-31T14:27:56.561Z,2.30
2019-03-31T14:30:25.318Z,2.22
2019-03-31T14:32:54.026Z,2.05
2019-03-31T14:35:22.794Z,1.47
2019-03-31T14:37:51.506Z,1.47
2019-03-31T14:40:20.273Z,1.72
2019-03-31T14:42:49.154Z,1.80
2019-03-31T14:45:33.937Z,1.42
2019-03-31T14:48:02.954Z,3.20
2019-03-31T14:50:34.196Z,3.15
2019-03-31T14:53:02.946Z,2.00
2019-03-31T14:55:31.650Z,1.60
2019-03-31T14:58:00.416Z,2.00
2019-03-31T15:00:29.121Z,2.15
2019-03-31T15:02:57.810Z,1.90
2019-03-31T15:05:26.494Z,2.30
2019-03-31T15:07:58.464Z,1.87
2019-03-31T15:10:26.628Z,1.77
2019-03-31T15:12:56.355Z,1.87
2019-03-31T15:15:25.029Z,1.85
2019-03-31T15:17:55.966Z,1.42
2019-03-31T15:20:24.678Z,1.95
2019-03-31T15:22:53.417Z,1.40
2019-03-31T15:25:22.218Z,1.10
2019-03-31T15:27:51.029Z,1.80
2019-03-31T15:30:19.700Z,1.98
2019-03-31T15:32:48.489Z,1.25
2019-03-31T15:35:17.246Z,0.70
2019-03-31T15:37:45.959Z,1.25
2019-03-31T15:40:14.740Z,1.17
2019-03-31T15:42:43.510Z,1.32
2019-03-31T15:45:12.410Z,1.30
2019-03-31T15:47:42.315Z,2.15
2019-03-31T15:50:15.198Z,1.60
2019-03-31T15:52:44.204Z,1.30
2019-03-31T15:55:15.612Z,1.62
2019-03-31T15:57:44.531Z,1.50
2019-03-31T16:00:18.259Z,1.65
2019-03-31T16:02:47.365Z,2.35
2019-03-31T16:05:16.239Z,1.65
2019-03-31T16:07:51.231Z,1.20
2019-03-31T16:10:20.794Z,1.70
2019-03-31T16:12:51.191Z,1.30
2019-03-31T16:15:23.202Z,1.12
2019-03-31T16:17:52.139Z,1.45
2019-03-31T16:20:21.535Z,1.15
2019-03-31T16:22:52.265Z,1.75
2019-03-31T16:25:22.915Z,1.70
2019-03-31T16:27:51.823Z,1.77
2019-03-31T16:30:23.439Z,2.37
2019-03-31T16:32:57.464Z,1.70
2019-03-31T16:35:29.567Z,1.90
2019-03-31T16:37:58.585Z,1.82
2019-03-31T16:40:27.426Z,1.52
2019-03-31T16:42:56.448Z,2.02
2019-03-31T16:45:25.258Z,2.20
2019-03-31T16:47:54.518Z,2.77
2019-03-31T16:50:23.548Z,2.12
2019-03-31T16:52:53.048Z,1.47
2019-03-31T16:55:22.195Z,2.35
2019-03-31T16:57:50.881Z,1.82
2019-03-31T17:00:19.577Z,1.95
2019-03-31T17:02:50.410Z,2.80
2019-03-31T17:05:22.267Z,3.47
2019-03-31T17:07:49.403Z,3.35
2019-03-31T17:10:18.175Z,3.37
2019-03-31T17:12:51.583Z,3.42
2019-03-31T17:15:20.358Z,1.98
2019-03-31T17:17:53.081Z,2.15
2019-03-31T17:20:21.932Z,2.10
2019-03-31T17:22:51.067Z,2.17
2019-03-31T17:25:20.318Z,2.47
2019-03-31T17:27:49.460Z,2.85
2019-03-31T17:30:18.598Z,2.33
2019-03-31T17:32:47.760Z,1.80
2019-03-31T17:35:16.560Z,1.70
2019-03-31T17:37:45.510Z,2.30
2019-03-31T17:40:15.723Z,2.22
2019-03-31T17:42:51.331Z,1.87
2019-03-31T17:45:26.032Z,1.92
2019-03-31T17:47:54.696Z,1.60
2019-03-31T17:50:24.070Z,1.77
2019-03-31T17:52:52.777Z,1.85
2019-03-31T17:55:22.014Z,1.85
2019-03-31T17:57:50.672Z,4.60
2019-03-31T18:00:19.425Z,1.85
2019-03-31T18:02:48.138Z,2.22
2019-03-31T18:05:16.898Z,2.90
2019-03-31T18:07:45.605Z,2.05
2019-03-31T18:10:20.573Z,1.90
2019-03-31T18:12:45.534Z,2.10
2019-03-31T18:15:14.529Z,2.27
2019-03-31T18:17:48.063Z,2.15
2019-03-31T18:22:45.093Z,1.52
2019-03-31T18:25:16.337Z,2.00
2019-03-31T18:27:45.105Z,1.80
2019-03-31T18:30:14.111Z,2.52
2019-03-31T18:32:43.105Z,1.82
2019-03-31T18:35:12.182Z,2.90
2019-03-31T18:37:40.984Z,2.70
2019-03-31T18:40:10.674Z,2.20
2019-03-31T18:42:39.706Z,2.22
2019-03-31T18:45:09.542Z,1.85
2019-03-31T18:47:38.472Z,2.90
2019-03-31T18:50:16.293Z,2.22
2019-03-31T18:52:45.063Z,2.72
2019-03-31T18:55:27.366Z,2.08
2019-03-31T18:58:00.351Z,2.62
2019-03-31T19:00:33.868Z,2.37
2019-03-31T19:03:13.288Z,2.00
2019-03-31T19:06:01.775Z,1.90
2019-03-31T19:08:38.111Z,2.10
2019-03-31T19:11:23.376Z,2.05
2019-03-31T19:14:10.076Z,2.42
2019-03-31T19:16:49.547Z,2.50
2019-03-31T19:19:19.844Z,3.37
2019-03-31T19:21:53.490Z,2.90
2019-03-31T19:24:41.840Z,2.90
2019-03-31T19:27:28.296Z,2.75
2019-03-31T19:30:04.079Z,2.52
2019-03-31T19:32:35.308Z,3.62
2019-03-31T19:35:08.901Z,3.85
2019-03-31T19:37:45.188Z,2.42
2019-03-31T19:40:31.785Z,2.80
2019-03-31T19:43:08.151Z,2.20
2019-03-31T19:45:54.739Z,1.95
2019-03-31T19:48:24.969Z,2.05
2019-03-31T19:51:11.555Z,1.50
2019-03-31T19:53:58.288Z,1.75
2019-03-31T19:56:45.174Z,1.72
2019-03-31T19:59:29.545Z,1.72
2019-03-31T20:02:15.847Z,1.80
2019-03-31T20:04:47.011Z,2.17
2019-03-31T20:07:17.292Z,1.72
2019-03-31T20:10:05.230Z,1.22
2019-03-31T20:12:51.493Z,1.30
2019-03-31T20:15:21.762Z,1.35
2019-03-31T20:18:12.872Z,1.50
2019-03-31T20:20:50.250Z,1.82
2019-03-31T20:23:24.485Z,2.20
2019-03-31T20:26:15.278Z,1.90
2019-03-31T20:29:00.744Z,1.77
2019-03-31T20:31:48.711Z,2.00
2019-03-31T20:34:21.772Z,2.08
2019-03-31T20:37:04.485Z,1.70
2019-03-31T20:39:57.070Z,1.70
2019-03-31T20:42:28.867Z,2.22
2019-03-31T20:44:57.575Z,2.25
2019-03-31T20:47:26.287Z,1.90
2019-03-31T20:49:55.046Z,2.10
2019-03-31T20:52:23.749Z,2.02
2019-03-31T20:54:52.352Z,1.90
2019-03-31T20:57:21.026Z,1.67
2019-03-31T20:59:56.083Z,2.08
2019-03-31T21:02:24.737Z,1.60
2019-03-31T21:04:56.071Z,1.75
2019-03-31T21:07:24.670Z,1.57
2019-03-31T21:09:54.717Z,1.52
2019-03-31T21:12:27.314Z,2.47
2019-03-31T21:14:56.030Z,1.80
2019-03-31T21:17:24.731Z,1.10
2019-03-31T21:19:53.522Z,1.30
2019-03-31T21:22:26.423Z,1.15
2019-03-31T21:24:54.991Z,1.20
2019-03-31T21:27:23.757Z,1.67
2019-03-31T21:29:52.460Z,1.30
2019-03-31T21:32:21.229Z,1.67
2019-03-31T21:34:50.046Z,2.15
2019-03-31T21:37:18.805Z,1.87
2019-03-31T21:39:47.513Z,1.80
2019-03-31T21:42:16.102Z,1.30
2019-03-31T21:44:44.781Z,1.80
2019-03-31T21:47:13.556Z,1.35
2019-03-31T21:49:42.341Z,1.35
2019-03-31T21:52:11.020Z,1.77
2019-03-31T21:54:39.722Z,1.62
2019-03-31T21:57:08.493Z,1.70
2019-03-31T21:59:37.195Z,1.77
2019-03-31T22:02:06.091Z,2.10
2019-03-31T22:04:34.662Z,1.80
2019-03-31T22:07:03.438Z,1.92
2019-03-31T22:09:32.065Z,1.37
2019-03-31T22:12:00.714Z,1.57
2019-03-31T22:14:29.405Z,1.40
2019-03-31T22:16:58.098Z,1.85
2019-03-31T22:19:26.780Z,1.60
2019-03-31T22:21:55.454Z,1.62
2019-03-31T22:24:24.055Z,1.75
2019-03-31T22:26:55.188Z,1.95
2019-03-31T22:29:27.678Z,2.00
2019-03-31T22:31:56.459Z,1.72
2019-03-31T22:34:26.252Z,1.80
2019-03-31T22:36:54.954Z,1.57
2019-03-31T22:39:23.725Z,1.98
2019-03-31T22:41:52.404Z,2.15
2019-03-31T22:44:23.585Z,1.50
2019-03-31T22:46:54.564Z,1.60
2019-03-31T22:49:22.555Z,2.00
2019-03-31T22:51:51.270Z,1.82
2019-03-31T22:54:20.057Z,1.35
2019-03-31T22:56:48.747Z,1.50
2019-03-31T22:59:17.420Z,1.35
2019-03-31T23:01:46.110Z,1.45
2019-03-31T23:04:14.788Z,1.50
2019-03-31T23:06:43.558Z,1.45
2019-03-31T23:09:12.272Z,1.05
2019-03-31T23:11:41.033Z,1.47
2019-03-31T23:14:09.818Z,0.98
2019-03-31T23:16:38.539Z,1.42
2019-03-31T23:19:07.218Z,1.40
2019-03-31T23:21:35.975Z,1.02
2019-03-31T23:24:04.595Z,1.10
2019-03-31T23:26:33.369Z,1.30
2019-03-31T23:29:02.134Z,1.75
2019-03-31T23:31:31.969Z,1.22
2019-03-31T23:34:02.782Z,1.05
2019-03-31T23:36:31.491Z,1.52
2019-03-31T23:39:00.169Z,1.37
2019-03-31T23:41:28.943Z,13.15
2019-03-31T23:43:58.964Z,2.87
2019-03-31T23:46:27.548Z,2.87
2019-03-31T23:48:56.247Z,3.33
2019-03-31T23:51:25.042Z,2.90
2019-03-31T23:53:53.722Z,5.12
2019-03-31T23:56:22.401Z,3.77
2019-03-31T23:58:51.175Z,2.60
